Terminal Aerodrome Forecast
Issued by NWS Dallas/Fort Worth, TX

Home | Current Version | Previous Version | Text Only | Print | Product List | Glossary On
Versions: 1 2 3 4 5 6 7 8 9 10 11 12 13 14 15 16 17 18 19 20 21 22 23
000
FTUS44 KFWD 292051 AAA
TAFDFW
TAF AMD
KDFW 292051Z 2921/3024 18017G27KT P6SM FEW250
     FM300000 16014KT P6SM SCT060 SCT250
     FM300200 14012KT P6SM VCTS SCT050CB BKN250
     FM300300 05007KT P6SM BKN015
     FM301600 08008KT P6SM BKN030=

USA.gov is the U.S. government's official web portal to all federal, state and local government web resources and services.